createdAt,value
2018-03-22T00:01:10.909Z,5.37
2018-03-22T00:03:36.963Z,6.03
2018-03-22T00:06:02.991Z,5.87
2018-03-22T00:08:29.013Z,6.13
2018-03-22T00:10:55.052Z,6.67
2018-03-22T00:13:21.046Z,6.10
2018-03-22T00:15:47.083Z,5.17
2018-03-22T00:18:13.109Z,6.80
2018-03-22T00:20:39.158Z,6.50
2018-03-22T00:23:05.275Z,6.30
2018-03-22T00:25:31.277Z,5.60
2018-03-22T00:27:57.854Z,7.00
2018-03-22T00:30:23.885Z,7.40
2018-03-22T00:32:49.918Z,8.03
2018-03-22T00:35:15.973Z,5.10
2018-03-22T00:37:42.025Z,5.73
2018-03-22T00:40:08.041Z,6.30
2018-03-22T00:42:34.157Z,5.67
2018-03-22T00:45:00.202Z,6.80
2018-03-22T00:47:26.202Z,6.00
2018-03-22T00:49:52.214Z,5.57
2018-03-22T00:52:18.273Z,5.97
2018-03-22T00:54:44.302Z,6.30
2018-03-22T00:57:10.305Z,5.43
2018-03-22T00:59:36.336Z,4.80
2018-03-22T01:02:02.330Z,7.33
2018-03-22T01:04:28.350Z,5.70
2018-03-22T01:06:54.300Z,5.23
2018-03-22T01:09:20.351Z,5.80
2018-03-22T01:11:46.308Z,5.80
2018-03-22T01:14:12.311Z,5.77
2018-03-22T01:16:38.331Z,5.10
2018-03-22T01:19:04.309Z,5.97
2018-03-22T01:21:30.321Z,5.13
2018-03-22T01:23:56.320Z,5.80
2018-03-22T01:26:22.433Z,6.13
2018-03-22T01:28:48.448Z,5.67
2018-03-22T01:31:14.471Z,5.67
2018-03-22T01:33:40.479Z,6.53
2018-03-22T01:36:06.526Z,6.70
2018-03-22T01:38:32.562Z,6.40
2018-03-22T01:40:58.526Z,5.50
2018-03-22T01:43:24.590Z,5.50
2018-03-22T01:45:50.587Z,6.13
2018-03-22T01:48:16.677Z,6.27
2018-03-22T01:50:42.685Z,6.13
2018-03-22T01:53:12.741Z,6.00
2018-03-22T01:55:38.735Z,5.87
2018-03-22T01:58:04.794Z,5.30
2018-03-22T02:00:30.797Z,6.00
2018-03-22T02:02:56.810Z,4.97
2018-03-22T02:05:22.836Z,5.67
2018-03-22T02:07:48.862Z,5.93
2018-03-22T02:10:14.870Z,5.83
2018-03-22T02:12:40.886Z,6.03
2018-03-22T02:15:06.955Z,6.93
2018-03-22T02:17:32.981Z,6.80
2018-03-22T02:19:59.034Z,6.00
2018-03-22T02:22:25.082Z,6.27
2018-03-22T02:24:51.094Z,6.07
2018-03-22T02:27:17.149Z,5.77
2018-03-22T02:29:43.107Z,6.17
2018-03-22T02:32:09.116Z,5.70
2018-03-22T02:34:35.118Z,5.80
2018-03-22T02:37:01.181Z,6.83
2018-03-22T02:39:27.158Z,5.10
2018-03-22T02:41:53.247Z,6.10
2018-03-22T02:44:19.314Z,5.60
2018-03-22T02:46:45.354Z,5.37
2018-03-22T02:49:11.362Z,5.47
2018-03-22T02:51:37.413Z,5.60
2018-03-22T02:54:03.378Z,5.07
2018-03-22T02:56:29.348Z,5.30
2018-03-22T02:58:55.362Z,5.37
2018-03-22T03:01:21.486Z,5.33
2018-03-22T03:03:47.713Z,5.20
2018-03-22T03:06:13.779Z,5.33
2018-03-22T03:08:39.786Z,5.87
2018-03-22T03:11:05.803Z,5.90
2018-03-22T03:13:31.790Z,6.27
2018-03-22T03:15:57.808Z,4.93
2018-03-22T03:18:23.802Z,5.40
2018-03-22T03:20:49.839Z,5.90
2018-03-22T03:23:15.844Z,6.50
2018-03-22T03:25:42.226Z,5.20
2018-03-22T03:28:08.242Z,4.97
2018-03-22T03:30:34.272Z,5.13
2018-03-22T03:33:00.298Z,6.00
2018-03-22T03:35:26.261Z,4.70
2018-03-22T03:37:52.315Z,6.17
2018-03-22T03:40:18.279Z,5.20
2018-03-22T03:42:44.336Z,5.23
2018-03-22T03:45:10.349Z,4.97
2018-03-22T03:47:36.353Z,4.87
2018-03-22T03:50:02.672Z,5.83
2018-03-22T03:52:28.677Z,5.77
2018-03-22T03:54:54.816Z,6.03
2018-03-22T03:57:20.834Z,4.87
2018-03-22T03:59:47.408Z,6.47
2018-03-22T04:02:13.502Z,5.80
2018-03-22T04:04:39.910Z,7.47
2018-03-22T04:07:05.977Z,6.30
2018-03-22T04:09:32.026Z,6.40
2018-03-22T04:11:58.093Z,8.00
2018-03-22T04:14:24.141Z,6.07
2018-03-22T04:16:50.149Z,6.00
2018-03-22T04:19:16.153Z,6.47
2018-03-22T04:21:42.169Z,5.90
2018-03-22T04:24:08.147Z,6.20
2018-03-22T04:26:34.189Z,5.57
2018-03-22T04:29:00.195Z,5.83
2018-03-22T04:31:26.204Z,6.03
2018-03-22T04:33:52.208Z,6.70
2018-03-22T04:36:18.210Z,6.20
2018-03-22T04:38:44.244Z,5.90
2018-03-22T04:41:10.333Z,5.60
2018-03-22T04:43:36.352Z,6.17
2018-03-22T04:46:02.454Z,5.20
2018-03-22T04:48:28.507Z,6.37
2018-03-22T04:50:54.530Z,6.23
2018-03-22T04:53:20.544Z,6.10
2018-03-22T04:55:46.617Z,6.30
2018-03-22T04:58:12.677Z,5.87
2018-03-22T05:00:38.855Z,6.30
2018-03-22T05:03:04.873Z,6.00
2018-03-22T05:05:30.928Z,6.30
2018-03-22T05:07:56.929Z,5.60
2018-03-22T05:10:22.937Z,5.30
2018-03-22T05:12:48.941Z,6.00
2018-03-22T05:15:15.065Z,6.93
2018-03-22T05:17:41.085Z,7.00
2018-03-22T05:20:07.077Z,5.63
2018-03-22T05:22:33.090Z,5.80
2018-03-22T05:24:59.118Z,5.40
2018-03-22T05:27:25.157Z,5.30
2018-03-22T05:29:51.226Z,6.00
2018-03-22T05:32:17.334Z,5.47
2018-03-22T05:34:43.364Z,6.90
2018-03-22T05:37:09.485Z,5.30
2018-03-22T05:39:35.519Z,4.53
2018-03-22T05:42:01.522Z,5.70
2018-03-22T05:44:27.597Z,5.83
2018-03-22T05:46:53.595Z,6.03
2018-03-22T05:49:19.616Z,5.70
2018-03-22T05:51:45.658Z,6.20
2018-03-22T05:54:12.559Z,6.03
2018-03-22T05:56:38.566Z,6.10
2018-03-22T05:59:04.590Z,6.33
2018-03-22T06:01:30.682Z,6.87
2018-03-22T06:03:56.836Z,5.07
2018-03-22T06:06:22.790Z,6.27
2018-03-22T06:08:48.867Z,8.47
2018-03-22T06:11:14.929Z,7.00
2018-03-22T06:13:40.889Z,6.67
2018-03-22T06:16:07.084Z,6.60
2018-03-22T06:18:33.074Z,6.83
2018-03-22T06:20:59.107Z,6.77
2018-03-22T06:23:25.185Z,8.50
2018-03-22T06:25:51.191Z,11.67
2018-03-22T06:28:17.200Z,9.20
2018-03-22T06:30:43.325Z,7.13
2018-03-22T06:33:09.354Z,6.90
2018-03-22T06:35:35.397Z,5.63
2018-03-22T06:38:01.449Z,9.53
2018-03-22T06:40:27.469Z,5.87
2018-03-22T06:42:53.552Z,7.60
2018-03-22T06:45:19.560Z,8.77
2018-03-22T06:47:45.607Z,5.53
2018-03-22T06:50:11.651Z,6.10
2018-03-22T06:52:37.670Z,6.67
2018-03-22T06:55:04.030Z,5.20
2018-03-22T06:57:30.025Z,7.13
2018-03-22T06:59:56.034Z,5.87
2018-03-22T07:02:22.039Z,5.90
2018-03-22T07:04:48.175Z,6.50
2018-03-22T07:07:14.143Z,6.00
2018-03-22T07:09:40.142Z,7.87
2018-03-22T07:12:06.193Z,7.53
2018-03-22T07:14:32.205Z,9.03
2018-03-22T07:16:58.234Z,7.00
2018-03-22T07:19:24.332Z,5.93
2018-03-22T07:21:50.366Z,6.70
2018-03-22T07:24:16.394Z,7.87
2018-03-22T07:26:42.392Z,8.47
2018-03-22T07:29:08.479Z,9.87
2018-03-22T07:31:34.543Z,10.60
2018-03-22T07:34:00.690Z,8.73
2018-03-22T07:36:26.697Z,7.87
2018-03-22T07:38:52.659Z,9.33
2018-03-22T07:41:18.729Z,8.80
2018-03-22T07:43:44.773Z,7.20
2018-03-22T07:46:10.797Z,6.13
2018-03-22T07:48:36.773Z,6.90
2018-03-22T07:51:02.842Z,6.67
2018-03-22T07:53:28.902Z,6.53
2018-03-22T07:55:55.050Z,6.23
2018-03-22T07:58:21.249Z,5.40
2018-03-22T08:00:47.253Z,5.00
2018-03-22T08:03:15.129Z,4.47
2018-03-22T08:05:41.137Z,4.47
2018-03-22T08:08:07.192Z,4.57
2018-03-22T08:10:33.225Z,4.80
2018-03-22T08:12:59.289Z,4.87
2018-03-22T08:15:25.601Z,4.50
2018-03-22T08:17:51.633Z,5.90
2018-03-22T08:20:17.649Z,5.00
2018-03-22T08:22:43.642Z,4.40
2018-03-22T08:25:09.692Z,4.30
2018-03-22T08:27:35.699Z,4.37
2018-03-22T08:30:01.772Z,4.80
2018-03-22T08:32:27.817Z,4.33
2018-03-22T08:34:53.853Z,4.50
2018-03-22T08:37:19.826Z,3.90
2018-03-22T08:39:45.841Z,5.20
2018-03-22T08:42:11.886Z,4.60
2018-03-22T08:44:37.894Z,4.70
2018-03-22T08:47:03.958Z,5.20
2018-03-22T08:49:29.965Z,4.50
2018-03-22T08:51:56.024Z,4.17
2018-03-22T08:54:22.025Z,5.90
2018-03-22T08:56:48.073Z,4.00
2018-03-22T08:59:14.057Z,3.77
2018-03-22T09:01:40.074Z,4.67
2018-03-22T09:04:06.167Z,4.07
2018-03-22T09:06:32.210Z,4.63
2018-03-22T09:08:58.253Z,3.50
2018-03-22T09:11:24.326Z,4.07
2018-03-22T09:13:50.389Z,5.10
2018-03-22T09:16:16.369Z,4.87
2018-03-22T09:18:42.446Z,4.73
2018-03-22T09:21:08.476Z,4.43
2018-03-22T09:23:34.485Z,4.10
2018-03-22T09:26:00.468Z,4.70
2018-03-22T09:28:26.497Z,5.03
2018-03-22T09:30:52.525Z,5.43
2018-03-22T09:33:18.533Z,3.90
2018-03-22T09:35:44.541Z,4.30
2018-03-22T09:38:10.567Z,4.90
2018-03-22T09:40:36.553Z,4.47
2018-03-22T09:43:02.595Z,4.40
2018-03-22T09:45:28.633Z,4.73
2018-03-22T09:47:54.697Z,3.93
2018-03-22T09:50:20.710Z,5.17
2018-03-22T09:52:46.713Z,7.17
2018-03-22T09:55:12.766Z,7.37
2018-03-22T09:57:38.814Z,5.23
2018-03-22T10:00:04.869Z,4.87
2018-03-22T10:02:30.914Z,5.70
2018-03-22T10:04:56.938Z,5.10
2018-03-22T10:07:22.934Z,5.10
2018-03-22T10:09:48.948Z,5.63
2018-03-22T10:12:14.968Z,5.30
2018-03-22T10:14:40.981Z,4.23
2018-03-22T10:17:06.952Z,5.80
2018-03-22T10:19:32.953Z,4.93
2018-03-22T10:21:59.075Z,5.83
2018-03-22T10:24:25.108Z,6.10
2018-03-22T10:26:51.091Z,5.73
2018-03-22T10:29:17.443Z,6.00
2018-03-22T10:31:43.451Z,6.80
2018-03-22T10:34:09.530Z,6.20
2018-03-22T10:36:35.561Z,5.80
2018-03-22T10:39:01.615Z,5.47
2018-03-22T10:41:27.617Z,6.40
2018-03-22T10:43:53.705Z,5.33
2018-03-22T10:46:19.709Z,5.47
2018-03-22T10:48:45.690Z,6.27
2018-03-22T10:51:11.709Z,6.93
2018-03-22T10:53:37.749Z,7.80
2018-03-22T10:56:03.784Z,7.77
2018-03-22T10:58:30.180Z,6.53
2018-03-22T11:01:02.282Z,7.67
2018-03-22T11:03:28.482Z,8.10
2018-03-22T11:05:54.505Z,7.27
2018-03-22T11:08:20.545Z,6.97
2018-03-22T11:10:46.630Z,6.53
2018-03-22T11:13:12.674Z,5.43
2018-03-22T11:15:38.618Z,5.53
2018-03-22T11:18:04.642Z,6.90
2018-03-22T11:20:30.640Z,6.07
2018-03-22T11:22:56.651Z,5.13
2018-03-22T11:25:22.652Z,4.23
2018-03-22T11:27:48.691Z,5.60
2018-03-22T11:30:14.736Z,5.40
2018-03-22T11:32:40.702Z,6.30
2018-03-22T11:35:06.722Z,7.20
2018-03-22T11:37:32.817Z,6.43
2018-03-22T11:39:58.853Z,6.33
2018-03-22T11:42:24.833Z,6.03
2018-03-22T11:44:50.916Z,5.10
2018-03-22T11:47:16.970Z,4.83
2018-03-22T11:49:42.997Z,7.53
2018-03-22T11:52:09.020Z,8.03
2018-03-22T11:54:35.028Z,7.60
2018-03-22T11:57:01.060Z,7.00
2018-03-22T11:59:27.086Z,7.90
2018-03-22T12:01:53.203Z,7.60
2018-03-22T12:04:19.218Z,6.23
2018-03-22T12:06:45.208Z,6.70
2018-03-22T12:09:11.330Z,7.60
2018-03-22T12:11:37.334Z,5.90
2018-03-22T12:14:03.340Z,5.13
2018-03-22T12:16:29.362Z,6.70
2018-03-22T12:18:55.365Z,6.70
2018-03-22T12:21:21.413Z,6.83
2018-03-22T12:23:47.417Z,8.20
2018-03-22T12:26:13.441Z,6.83
2018-03-22T12:28:39.464Z,8.13
2018-03-22T12:31:05.530Z,7.00
2018-03-22T12:33:31.509Z,6.43
2018-03-22T12:35:57.539Z,7.63
2018-03-22T12:38:23.603Z,7.87
2018-03-22T12:40:49.614Z,6.47
2018-03-22T12:43:15.642Z,8.40
2018-03-22T12:45:41.676Z,7.43
2018-03-22T12:48:07.699Z,10.07
2018-03-22T12:50:33.725Z,12.73
2018-03-22T12:52:59.827Z,7.07
2018-03-22T12:55:26.279Z,8.23
2018-03-22T12:57:52.285Z,8.93
2018-03-22T13:00:18.314Z,11.93
2018-03-22T13:02:44.387Z,7.97
2018-03-22T13:05:10.401Z,6.83
2018-03-22T13:07:36.406Z,7.83
2018-03-22T13:10:02.414Z,6.73
2018-03-22T13:12:28.470Z,9.93
2018-03-22T13:14:54.499Z,10.80
2018-03-22T13:17:20.536Z,12.47
2018-03-22T13:19:46.553Z,12.07
2018-03-22T13:22:12.572Z,13.10
2018-03-22T13:24:38.578Z,13.10
2018-03-22T13:27:04.572Z,11.67
2018-03-22T13:29:30.598Z,8.87
2018-03-22T13:31:56.619Z,13.10
2018-03-22T13:34:22.690Z,14.80
2018-03-22T13:36:48.746Z,11.40
2018-03-22T13:39:14.785Z,8.00
2018-03-22T13:41:40.770Z,10.33
2018-03-22T13:44:06.804Z,13.47
2018-03-22T13:46:32.841Z,13.83
2018-03-22T13:48:58.853Z,12.13
2018-03-22T13:51:24.862Z,11.23
2018-03-22T13:53:50.945Z,10.57
2018-03-22T13:56:17.011Z,12.27
2018-03-22T13:58:43.026Z,14.00
2018-03-22T14:01:09.055Z,13.20
2018-03-22T14:03:35.061Z,8.60
2018-03-22T14:06:01.106Z,14.20
2018-03-22T14:08:27.590Z,14.43
2018-03-22T14:10:53.661Z,10.60
2018-03-22T14:13:19.681Z,12.43
2018-03-22T14:15:45.655Z,13.77
2018-03-22T14:18:11.662Z,14.30
2018-03-22T14:20:37.737Z,14.17
2018-03-22T14:23:03.783Z,14.43
2018-03-22T14:25:30.422Z,14.03
2018-03-22T14:27:56.450Z,15.23
2018-03-22T14:30:22.510Z,15.00
2018-03-22T14:32:48.516Z,12.33
2018-03-22T14:35:14.459Z,15.60
2018-03-22T14:37:40.514Z,11.37
2018-03-22T14:40:06.548Z,11.83
2018-03-22T14:42:32.553Z,16.70
2018-03-22T14:44:58.652Z,16.70
2018-03-22T14:47:24.634Z,17.20
2018-03-22T14:49:50.670Z,16.17
2018-03-22T14:52:16.760Z,16.10
2018-03-22T14:54:42.794Z,23.20
2018-03-22T14:57:08.822Z,93.23
2018-03-22T14:59:34.877Z,60.63
2018-03-22T15:02:00.896Z,15.23
2018-03-22T15:04:26.918Z,65.10
2018-03-22T15:06:52.990Z,54.90
2018-03-22T15:09:19.017Z,22.83
2018-03-22T15:11:45.048Z,22.40
2018-03-22T15:14:11.095Z,25.50
2018-03-22T15:16:37.133Z,15.90
2018-03-22T15:19:03.183Z,12.17
2018-03-22T15:21:29.184Z,10.00
2018-03-22T15:23:55.290Z,13.70
2018-03-22T15:26:21.319Z,11.73
2018-03-22T15:28:47.373Z,12.27
2018-03-22T15:31:13.459Z,13.20
2018-03-22T15:33:39.518Z,9.43
2018-03-22T15:36:05.538Z,11.83
2018-03-22T15:38:31.628Z,12.93
2018-03-22T15:40:57.707Z,13.87
2018-03-22T15:43:23.806Z,14.63
2018-03-22T15:45:49.911Z,14.53
2018-03-22T15:48:15.925Z,14.93
2018-03-22T15:50:42.048Z,14.40
2018-03-22T15:53:08.124Z,32.40
2018-03-22T15:55:34.218Z,37.87
2018-03-22T15:58:00.247Z,50.53
2018-03-22T16:00:26.717Z,122.73
2018-03-22T16:02:52.771Z,62.57
2018-03-22T16:05:18.814Z,27.33
2018-03-22T16:07:44.825Z,34.67
2018-03-22T16:10:10.929Z,29.33
2018-03-22T16:12:37.039Z,17.10
2018-03-22T16:15:03.349Z,15.83
2018-03-22T16:17:29.462Z,16.60
2018-03-22T16:19:55.561Z,58.90
2018-03-22T16:22:21.634Z,34.07
2018-03-22T16:24:47.670Z,25.97
2018-03-22T16:27:13.697Z,13.83
2018-03-22T16:29:39.801Z,16.70
2018-03-22T16:32:05.867Z,15.73
2018-03-22T16:34:31.906Z,17.70
2018-03-22T16:36:57.905Z,15.03
2018-03-22T16:39:23.961Z,16.20
2018-03-22T16:41:49.969Z,17.70
2018-03-22T16:44:15.993Z,18.10
2018-03-22T16:46:41.975Z,18.83
2018-03-22T16:49:08.103Z,18.60
2018-03-22T16:51:34.136Z,17.47
2018-03-22T16:54:00.151Z,16.30
2018-03-22T16:56:26.154Z,17.93
2018-03-22T16:58:52.112Z,16.40
2018-03-22T17:01:18.127Z,19.07
2018-03-22T17:03:44.187Z,20.27
2018-03-22T17:06:10.254Z,20.70
2018-03-22T17:08:36.292Z,18.83
2018-03-22T17:11:02.329Z,18.67
2018-03-22T17:13:28.310Z,21.87
2018-03-22T17:15:54.364Z,19.97
2018-03-22T17:18:20.453Z,19.60
2018-03-22T17:20:46.529Z,20.67
2018-03-22T17:23:12.549Z,18.60
2018-03-22T17:25:38.622Z,20.73
2018-03-22T17:28:04.726Z,21.33
2018-03-22T17:30:30.806Z,21.63
2018-03-22T17:32:56.758Z,22.47
2018-03-22T17:35:22.873Z,22.10
2018-03-22T17:37:48.890Z,21.47
2018-03-22T17:40:14.912Z,21.70
2018-03-22T17:42:40.982Z,21.10
2018-03-22T17:45:07.037Z,22.63
2018-03-22T17:47:33.042Z,20.80
2018-03-22T17:49:59.131Z,20.90
2018-03-22T17:52:25.201Z,21.30
2018-03-22T17:54:51.244Z,22.33
2018-03-22T17:57:17.294Z,22.77
2018-03-22T17:59:43.344Z,23.13
2018-03-22T18:02:09.405Z,24.97
2018-03-22T18:04:35.386Z,18.17
2018-03-22T18:07:01.422Z,19.90
2018-03-22T18:09:27.849Z,19.67
2018-03-22T18:11:53.910Z,23.80
2018-03-22T18:14:19.934Z,20.20
2018-03-22T18:16:45.934Z,16.87
2018-03-22T18:19:12.004Z,20.70
2018-03-22T18:21:38.075Z,20.40
2018-03-22T18:24:04.092Z,20.00
2018-03-22T18:26:30.101Z,19.40
2018-03-22T18:28:56.101Z,20.83
2018-03-22T18:31:22.073Z,20.70
2018-03-22T18:33:48.070Z,20.10
2018-03-22T18:36:14.152Z,16.37
2018-03-22T18:38:40.141Z,18.83
2018-03-22T18:41:06.181Z,19.10
2018-03-22T18:43:32.208Z,18.17
2018-03-22T18:45:58.290Z,19.23
2018-03-22T18:48:24.358Z,22.20
2018-03-22T18:50:50.338Z,21.47
2018-03-22T18:53:16.419Z,19.23
2018-03-22T18:55:42.466Z,21.20
2018-03-22T18:58:08.489Z,19.80
2018-03-22T19:00:34.541Z,20.07
2018-03-22T19:03:00.566Z,20.20
2018-03-22T19:05:26.666Z,20.53
2018-03-22T19:07:52.694Z,18.77
2018-03-22T19:10:18.766Z,21.27
2018-03-22T19:12:45.206Z,24.20
2018-03-22T19:15:11.167Z,21.23
2018-03-22T19:17:37.188Z,21.13
2018-03-22T19:20:03.326Z,22.57
2018-03-22T19:22:29.374Z,22.70
2018-03-22T19:24:55.425Z,20.20
2018-03-22T19:27:21.477Z,22.30
2018-03-22T19:29:47.485Z,22.37
2018-03-22T19:32:13.497Z,22.97
2018-03-22T19:34:39.677Z,24.33
2018-03-22T19:37:05.721Z,21.47
2018-03-22T19:39:31.898Z,23.63
2018-03-22T19:41:57.995Z,21.57
2018-03-22T19:44:24.125Z,22.43
2018-03-22T19:46:50.124Z,21.37
2018-03-22T19:49:16.094Z,22.93
2018-03-22T19:51:42.106Z,21.27
2018-03-22T19:54:08.191Z,20.00
2018-03-22T19:56:34.193Z,21.97
2018-03-22T19:59:00.356Z,23.60
2018-03-22T20:01:26.446Z,23.37
2018-03-22T20:03:52.474Z,23.10
2018-03-22T20:06:18.500Z,22.27
2018-03-22T20:08:44.533Z,22.10
2018-03-22T20:11:10.635Z,23.27
2018-03-22T20:13:36.622Z,22.47
2018-03-22T20:16:02.723Z,25.07
2018-03-22T20:18:28.745Z,21.07
2018-03-22T20:20:54.813Z,22.00
2018-03-22T20:23:20.921Z,22.20
2018-03-22T20:25:47.030Z,24.50
2018-03-22T20:28:13.044Z,23.17
2018-03-22T20:30:39.079Z,22.73
2018-03-22T20:33:05.158Z,21.23
2018-03-22T20:35:31.255Z,22.90
2018-03-22T20:37:57.432Z,23.43
2018-03-22T20:40:23.441Z,24.67
2018-03-22T20:42:49.443Z,21.20
2018-03-22T20:45:15.459Z,24.37
2018-03-22T20:47:41.513Z,25.20
2018-03-22T20:50:07.559Z,23.90
2018-03-22T20:52:33.601Z,23.93
2018-03-22T20:54:59.647Z,25.33
2018-03-22T20:57:25.685Z,26.10
2018-03-22T20:59:51.754Z,22.90
2018-03-22T21:02:17.810Z,23.90
2018-03-22T21:04:43.778Z,22.77
2018-03-22T21:07:09.846Z,23.63
2018-03-22T21:09:35.842Z,22.40
2018-03-22T21:12:01.895Z,24.60
2018-03-22T21:14:27.931Z,23.27
2018-03-22T21:16:54.014Z,22.40
2018-03-22T21:19:20.127Z,20.40
2018-03-22T21:21:46.302Z,24.87
2018-03-22T21:24:12.405Z,22.70
2018-03-22T21:26:38.477Z,24.00
2018-03-22T21:29:04.528Z,25.70
2018-03-22T21:31:30.863Z,23.57
2018-03-22T21:33:57.117Z,24.60
2018-03-22T21:36:23.190Z,26.73
2018-03-22T21:38:49.269Z,23.70
2018-03-22T21:41:37.523Z,24.37
2018-03-22T21:44:14.763Z,22.30
2018-03-22T21:46:40.784Z,24.00
2018-03-22T21:49:06.879Z,22.43
2018-03-22T21:51:32.958Z,22.90
2018-03-22T21:53:59.038Z,23.37
2018-03-22T21:56:25.094Z,23.77
2018-03-22T21:58:51.151Z,25.43
2018-03-22T22:01:17.154Z,22.97
2018-03-22T22:03:43.195Z,23.20
2018-03-22T22:06:09.195Z,22.70
2018-03-22T22:08:35.162Z,25.23
2018-03-22T22:11:01.162Z,23.07
2018-03-22T22:13:27.149Z,24.10
2018-03-22T22:15:53.206Z,23.10
2018-03-22T22:18:19.222Z,22.47
2018-03-22T22:20:45.223Z,26.20
2018-03-22T22:23:11.301Z,24.10
2018-03-22T22:25:37.339Z,23.80
2018-03-22T22:28:03.390Z,25.07
2018-03-22T22:30:29.388Z,23.67
2018-03-22T22:32:55.488Z,23.53
2018-03-22T22:35:21.545Z,22.40
2018-03-22T22:37:47.511Z,22.30
2018-03-22T22:40:13.572Z,26.23
2018-03-22T22:42:39.655Z,23.57
2018-03-22T22:45:05.659Z,23.33
2018-03-22T22:47:31.634Z,22.70
2018-03-22T22:49:57.716Z,23.03
2018-03-22T22:52:23.735Z,24.53
2018-03-22T22:54:49.761Z,22.67
2018-03-22T22:57:15.826Z,23.70
2018-03-22T22:59:41.869Z,21.47
2018-03-22T23:02:07.906Z,21.23
2018-03-22T23:04:34.018Z,21.03
2018-03-22T23:07:00.079Z,25.17
2018-03-22T23:09:26.080Z,23.70
2018-03-22T23:11:52.190Z,21.73
2018-03-22T23:14:18.242Z,24.57
2018-03-22T23:16:44.317Z,22.03
2018-03-22T23:19:10.345Z,22.90
2018-03-22T23:21:36.384Z,22.70
2018-03-22T23:24:02.390Z,20.80
2018-03-22T23:26:28.462Z,21.90
2018-03-22T23:28:54.477Z,20.77
2018-03-22T23:31:20.521Z,18.60
2018-03-22T23:33:46.593Z,22.40
2018-03-22T23:36:12.647Z,19.80
2018-03-22T23:38:38.657Z,20.30
2018-03-22T23:41:04.638Z,21.87
2018-03-22T23:43:30.694Z,20.43
2018-03-22T23:45:56.699Z,21.40
2018-03-22T23:48:22.739Z,21.43
2018-03-22T23:50:48.832Z,21.10
2018-03-22T23:53:14.862Z,21.57
2018-03-22T23:55:40.948Z,21.67
2018-03-22T23:58:07.075Z,19.97
